sensor_id;sensor_type;location;lat;lon;timestamp;P1;durP1;ratioP1;P2;durP2;ratioP2
76795;SDS011;65745;50.278;18.192;2023-02-08T00:01:08;66.60;;;32.00;;
76795;SDS011;65745;50.278;18.192;2023-02-08T00:03:41;70.40;;;35.90;;
76795;SDS011;65745;50.278;18.192;2023-02-08T00:06:13;64.30;;;34.40;;
76795;SDS011;65745;50.278;18.192;2023-02-08T00:08:47;62.30;;;32.70;;
76795;SDS011;65745;50.278;18.192;2023-02-08T00:11:19;61.20;;;30.60;;
76795;SDS011;65745;50.278;18.192;2023-02-08T00:13:51;56.60;;;28.90;;
76795;SDS011;65745;50.278;18.192;2023-02-08T00:16:23;54.40;;;28.10;;
76795;SDS011;65745;50.278;18.192;2023-02-08T00:18:55;55.00;;;30.10;;
76795;SDS011;65745;50.278;18.192;2023-02-08T00:21:28;55.40;;;28.00;;
76795;SDS011;65745;50.278;18.192;2023-02-08T00:24:00;55.80;;;27.10;;
76795;SDS011;65745;50.278;18.192;2023-02-08T00:26:32;48.60;;;26.00;;
76795;SDS011;65745;50.278;18.192;2023-02-08T00:29:04;53.00;;;26.30;;
76795;SDS011;65745;50.278;18.192;2023-02-08T00:31:37;53.20;;;27.60;;
76795;SDS011;65745;50.278;18.192;2023-02-08T00:34:09;53.40;;;27.00;;
76795;SDS011;65745;50.278;18.192;2023-02-08T00:36:41;67.20;;;32.40;;
76795;SDS011;65745;50.278;18.192;2023-02-08T00:39:13;69.50;;;30.60;;
76795;SDS011;65745;50.278;18.192;2023-02-08T00:41:45;66.70;;;30.50;;
76795;SDS011;65745;50.278;18.192;2023-02-08T00:44:18;55.40;;;29.50;;
76795;SDS011;65745;50.278;18.192;2023-02-08T00:46:50;57.90;;;27.50;;
76795;SDS011;65745;50.278;18.192;2023-02-08T00:49:23;52.10;;;25.80;;
76795;SDS011;65745;50.278;18.192;2023-02-08T00:51:56;52.50;;;26.30;;
76795;SDS011;65745;50.278;18.192;2023-02-08T00:54:28;55.80;;;26.30;;
76795;SDS011;65745;50.278;18.192;2023-02-08T00:57:01;50.30;;;27.80;;
76795;SDS011;65745;50.278;18.192;2023-02-08T00:59:33;47.20;;;26.00;;
76795;SDS011;65745;50.278;18.192;2023-02-08T01:02:06;49.00;;;25.20;;
76795;SDS011;65745;50.278;18.192;2023-02-08T01:04:38;48.20;;;26.90;;
76795;SDS011;65745;50.278;18.192;2023-02-08T01:07:10;54.30;;;26.40;;
76795;SDS011;65745;50.278;18.192;2023-02-08T01:09:42;49.10;;;25.40;;
76795;SDS011;65745;50.278;18.192;2023-02-08T01:12:15;50.20;;;26.70;;
76795;SDS011;65745;50.278;18.192;2023-02-08T01:14:47;48.20;;;24.80;;
76795;SDS011;65745;50.278;18.192;2023-02-08T01:17:20;47.30;;;24.40;;
76795;SDS011;65745;50.278;18.192;2023-02-08T01:19:52;44.50;;;24.50;;
76795;SDS011;65745;50.278;18.192;2023-02-08T01:22:24;45.40;;;22.90;;
76795;SDS011;65745;50.278;18.192;2023-02-08T01:24:57;43.40;;;22.70;;
76795;SDS011;65745;50.278;18.192;2023-02-08T01:27:30;42.20;;;23.20;;
76795;SDS011;65745;50.278;18.192;2023-02-08T01:30:03;52.90;;;27.10;;
76795;SDS011;65745;50.278;18.192;2023-02-08T01:32:36;54.30;;;25.80;;
76795;SDS011;65745;50.278;18.192;2023-02-08T01:35:08;54.40;;;27.30;;
76795;SDS011;65745;50.278;18.192;2023-02-08T01:37:41;52.00;;;27.10;;
76795;SDS011;65745;50.278;18.192;2023-02-08T01:40:13;46.00;;;25.20;;
76795;SDS011;65745;50.278;18.192;2023-02-08T01:42:45;48.60;;;25.30;;
76795;SDS011;65745;50.278;18.192;2023-02-08T01:45:25;48.30;;;26.70;;
76795;SDS011;65745;50.278;18.192;2023-02-08T01:48:04;44.70;;;23.40;;
76795;SDS011;65745;50.278;18.192;2023-02-08T01:50:43;50.90;;;24.90;;
76795;SDS011;65745;50.278;18.192;2023-02-08T01:53:20;43.20;;;24.50;;
76795;SDS011;65745;50.278;18.192;2023-02-08T01:55:55;49.30;;;24.20;;
76795;SDS011;65745;50.278;18.192;2023-02-08T01:58:32;47.00;;;25.70;;
76795;SDS011;65745;50.278;18.192;2023-02-08T02:01:09;52.80;;;26.70;;
76795;SDS011;65745;50.278;18.192;2023-02-08T02:03:43;46.60;;;25.90;;
76795;SDS011;65745;50.278;18.192;2023-02-08T02:06:17;46.90;;;24.30;;
76795;SDS011;65745;50.278;18.192;2023-02-08T02:08:55;46.40;;;25.10;;
76795;SDS011;65745;50.278;18.192;2023-02-08T02:11:32;46.70;;;26.80;;
76795;SDS011;65745;50.278;18.192;2023-02-08T02:14:05;49.50;;;27.90;;
76795;SDS011;65745;50.278;18.192;2023-02-08T02:16:38;51.90;;;26.30;;
76795;SDS011;65745;50.278;18.192;2023-02-08T02:19:12;59.40;;;28.90;;
76795;SDS011;65745;50.278;18.192;2023-02-08T02:21:52;61.00;;;29.00;;
76795;SDS011;65745;50.278;18.192;2023-02-08T02:24:54;57.40;;;27.70;;
76795;SDS011;65745;50.278;18.192;2023-02-08T02:27:44;50.40;;;25.50;;
76795;SDS011;65745;50.278;18.192;2023-02-08T02:30:43;52.30;;;26.00;;
76795;SDS011;65745;50.278;18.192;2023-02-08T02:33:45;41.40;;;22.20;;
76795;SDS011;65745;50.278;18.192;2023-02-08T02:36:31;45.50;;;23.30;;
76795;SDS011;65745;50.278;18.192;2023-02-08T02:39:14;41.80;;;22.90;;
76795;SDS011;65745;50.278;18.192;2023-02-08T02:41:55;41.90;;;22.10;;
76795;SDS011;65745;50.278;18.192;2023-02-08T02:44:53;42.00;;;21.10;;
76795;SDS011;65745;50.278;18.192;2023-02-08T02:47:37;37.50;;;21.90;;
76795;SDS011;65745;50.278;18.192;2023-02-08T02:50:16;38.10;;;22.60;;
76795;SDS011;65745;50.278;18.192;2023-02-08T02:52:56;40.50;;;22.30;;
76795;SDS011;65745;50.278;18.192;2023-02-08T02:55:34;44.40;;;22.00;;
76795;SDS011;65745;50.278;18.192;2023-02-08T02:58:11;35.20;;;19.70;;
76795;SDS011;65745;50.278;18.192;2023-02-08T03:00:46;36.00;;;21.50;;
76795;SDS011;65745;50.278;18.192;2023-02-08T03:03:24;39.90;;;21.40;;
76795;SDS011;65745;50.278;18.192;2023-02-08T03:06:00;38.00;;;20.40;;
76795;SDS011;65745;50.278;18.192;2023-02-08T03:08:46;36.70;;;19.60;;
76795;SDS011;65745;50.278;18.192;2023-02-08T03:11:29;37.70;;;19.10;;
76795;SDS011;65745;50.278;18.192;2023-02-08T03:14:22;34.60;;;20.20;;
76795;SDS011;65745;50.278;18.192;2023-02-08T03:17:05;49.40;;;27.70;;
76795;SDS011;65745;50.278;18.192;2023-02-08T03:19:56;44.50;;;23.80;;
76795;SDS011;65745;50.278;18.192;2023-02-08T03:22:37;41.70;;;22.30;;
76795;SDS011;65745;50.278;18.192;2023-02-08T03:27:54;41.00;;;19.80;;
76795;SDS011;65745;50.278;18.192;2023-02-08T03:30:36;42.00;;;21.40;;
76795;SDS011;65745;50.278;18.192;2023-02-08T03:33:17;38.90;;;23.00;;
76795;SDS011;65745;50.278;18.192;2023-02-08T03:35:56;43.40;;;24.20;;
76795;SDS011;65745;50.278;18.192;2023-02-08T03:38:33;36.70;;;21.60;;
76795;SDS011;65745;50.278;18.192;2023-02-08T03:41:11;38.10;;;22.00;;
76795;SDS011;65745;50.278;18.192;2023-02-08T03:43:45;41.20;;;22.20;;
76795;SDS011;65745;50.278;18.192;2023-02-08T03:46:23;43.00;;;23.90;;
76795;SDS011;65745;50.278;18.192;2023-02-08T03:48:59;42.20;;;22.00;;
76795;SDS011;65745;50.278;18.192;2023-02-08T03:51:37;38.00;;;22.40;;
76795;SDS011;65745;50.278;18.192;2023-02-08T03:54:11;37.80;;;22.60;;
76795;SDS011;65745;50.278;18.192;2023-02-08T03:56:50;36.20;;;21.50;;
76795;SDS011;65745;50.278;18.192;2023-02-08T03:59:29;38.50;;;21.30;;
76795;SDS011;65745;50.278;18.192;2023-02-08T04:02:05;249.00;;;74.50;;
76795;SDS011;65745;50.278;18.192;2023-02-08T04:04:41;376.60;;;123.20;;
76795;SDS011;65745;50.278;18.192;2023-02-08T04:07:16;257.00;;;88.40;;
76795;SDS011;65745;50.278;18.192;2023-02-08T04:09:49;225.10;;;74.10;;
76795;SDS011;65745;50.278;18.192;2023-02-08T04:12:21;217.30;;;69.50;;
76795;SDS011;65745;50.278;18.192;2023-02-08T04:14:53;132.90;;;47.20;;
76795;SDS011;65745;50.278;18.192;2023-02-08T04:17:26;215.20;;;63.10;;
76795;SDS011;65745;50.278;18.192;2023-02-08T04:19:58;167.40;;;56.30;;
76795;SDS011;65745;50.278;18.192;2023-02-08T04:22:30;78.70;;;32.10;;
76795;SDS011;65745;50.278;18.192;2023-02-08T04:25:03;58.80;;;27.70;;
76795;SDS011;65745;50.278;18.192;2023-02-08T04:27:36;55.60;;;25.80;;
76795;SDS011;65745;50.278;18.192;2023-02-08T04:30:09;54.30;;;25.90;;
76795;SDS011;65745;50.278;18.192;2023-02-08T04:32:42;47.40;;;25.20;;
76795;SDS011;65745;50.278;18.192;2023-02-08T04:35:14;46.70;;;26.40;;
76795;SDS011;65745;50.278;18.192;2023-02-08T04:37:46;41.80;;;23.20;;
76795;SDS011;65745;50.278;18.192;2023-02-08T04:40:18;49.90;;;24.90;;
76795;SDS011;65745;50.278;18.192;2023-02-08T04:42:51;42.70;;;23.30;;
76795;SDS011;65745;50.278;18.192;2023-02-08T04:45:23;45.10;;;26.20;;
76795;SDS011;65745;50.278;18.192;2023-02-08T04:47:59;47.10;;;26.80;;
76795;SDS011;65745;50.278;18.192;2023-02-08T04:50:32;50.80;;;28.20;;
76795;SDS011;65745;50.278;18.192;2023-02-08T04:53:04;45.80;;;28.30;;
76795;SDS011;65745;50.278;18.192;2023-02-08T04:55:37;51.50;;;27.90;;
76795;SDS011;65745;50.278;18.192;2023-02-08T04:58:09;51.20;;;29.50;;
76795;SDS011;65745;50.278;18.192;2023-02-08T05:00:41;78.10;;;35.50;;
76795;SDS011;65745;50.278;18.192;2023-02-08T05:03:13;73.00;;;33.90;;
76795;SDS011;65745;50.278;18.192;2023-02-08T05:05:46;68.00;;;34.60;;
76795;SDS011;65745;50.278;18.192;2023-02-08T05:08:27;56.40;;;31.40;;
76795;SDS011;65745;50.278;18.192;2023-02-08T05:11:00;57.20;;;30.50;;
76795;SDS011;65745;50.278;18.192;2023-02-08T05:13:32;71.90;;;35.40;;
76795;SDS011;65745;50.278;18.192;2023-02-08T05:16:04;81.40;;;38.70;;
76795;SDS011;65745;50.278;18.192;2023-02-08T05:18:36;66.20;;;35.10;;
76795;SDS011;65745;50.278;18.192;2023-02-08T05:21:09;109.50;;;48.50;;
76795;SDS011;65745;50.278;18.192;2023-02-08T05:23:41;214.70;;;88.20;;
76795;SDS011;65745;50.278;18.192;2023-02-08T05:26:15;162.00;;;69.00;;
76795;SDS011;65745;50.278;18.192;2023-02-08T05:28:48;94.00;;;44.30;;
76795;SDS011;65745;50.278;18.192;2023-02-08T05:31:20;59.10;;;32.70;;
76795;SDS011;65745;50.278;18.192;2023-02-08T05:33:54;52.10;;;28.50;;
76795;SDS011;65745;50.278;18.192;2023-02-08T05:36:26;52.20;;;28.90;;
76795;SDS011;65745;50.278;18.192;2023-02-08T05:38:59;48.30;;;26.30;;
76795;SDS011;65745;50.278;18.192;2023-02-08T05:41:31;46.00;;;25.30;;
76795;SDS011;65745;50.278;18.192;2023-02-08T05:44:04;51.60;;;26.30;;
76795;SDS011;65745;50.278;18.192;2023-02-08T05:46:36;69.00;;;36.60;;
76795;SDS011;65745;50.278;18.192;2023-02-08T05:49:08;132.80;;;58.70;;
76795;SDS011;65745;50.278;18.192;2023-02-08T05:51:40;274.60;;;84.70;;
76795;SDS011;65745;50.278;18.192;2023-02-08T05:54:13;229.80;;;70.10;;
76795;SDS011;65745;50.278;18.192;2023-02-08T05:56:45;179.90;;;58.00;;
76795;SDS011;65745;50.278;18.192;2023-02-08T05:59:18;148.80;;;57.30;;
76795;SDS011;65745;50.278;18.192;2023-02-08T06:01:50;154.40;;;55.00;;
76795;SDS011;65745;50.278;18.192;2023-02-08T06:04:22;175.50;;;60.50;;
76795;SDS011;65745;50.278;18.192;2023-02-08T06:06:54;144.40;;;53.10;;
76795;SDS011;65745;50.278;18.192;2023-02-08T06:09:27;172.90;;;58.70;;
76795;SDS011;65745;50.278;18.192;2023-02-08T06:11:59;170.50;;;56.20;;
76795;SDS011;65745;50.278;18.192;2023-02-08T06:14:31;195.30;;;57.70;;
76795;SDS011;65745;50.278;18.192;2023-02-08T06:17:04;136.10;;;50.50;;
76795;SDS011;65745;50.278;18.192;2023-02-08T06:19:37;142.20;;;47.70;;
76795;SDS011;65745;50.278;18.192;2023-02-08T06:22:10;90.90;;;37.00;;
76795;SDS011;65745;50.278;18.192;2023-02-08T06:24:42;73.60;;;33.00;;
76795;SDS011;65745;50.278;18.192;2023-02-08T06:27:14;65.70;;;31.50;;
76795;SDS011;65745;50.278;18.192;2023-02-08T06:29:46;54.60;;;28.30;;
76795;SDS011;65745;50.278;18.192;2023-02-08T06:32:18;57.10;;;28.60;;
76795;SDS011;65745;50.278;18.192;2023-02-08T06:34:51;95.80;;;35.80;;
76795;SDS011;65745;50.278;18.192;2023-02-08T06:37:23;89.50;;;38.30;;
76795;SDS011;65745;50.278;18.192;2023-02-08T06:39:55;67.00;;;32.50;;
76795;SDS011;65745;50.278;18.192;2023-02-08T06:42:30;62.40;;;31.60;;
76795;SDS011;65745;50.278;18.192;2023-02-08T06:45:02;69.40;;;34.00;;
76795;SDS011;65745;50.278;18.192;2023-02-08T06:47:39;68.80;;;33.90;;
76795;SDS011;65745;50.278;18.192;2023-02-08T06:50:11;65.80;;;32.00;;
76795;SDS011;65745;50.278;18.192;2023-02-08T06:52:44;68.70;;;32.30;;
76795;SDS011;65745;50.278;18.192;2023-02-08T06:55:17;96.40;;;41.20;;
76795;SDS011;65745;50.278;18.192;2023-02-08T06:57:49;80.40;;;37.20;;
76795;SDS011;65745;50.278;18.192;2023-02-08T07:00:26;86.20;;;38.00;;
76795;SDS011;65745;50.278;18.192;2023-02-08T07:03:01;65.70;;;32.10;;
76795;SDS011;65745;50.278;18.192;2023-02-08T07:05:34;53.10;;;30.10;;
76795;SDS011;65745;50.278;18.192;2023-02-08T07:08:07;61.20;;;32.50;;
76795;SDS011;65745;50.278;18.192;2023-02-08T07:10:39;54.10;;;30.60;;
76795;SDS011;65745;50.278;18.192;2023-02-08T07:13:14;69.20;;;31.60;;
76795;SDS011;65745;50.278;18.192;2023-02-08T07:15:46;64.10;;;32.50;;
76795;SDS011;65745;50.278;18.192;2023-02-08T07:18:18;63.90;;;32.20;;
76795;SDS011;65745;50.278;18.192;2023-02-08T07:20:51;59.90;;;29.20;;
76795;SDS011;65745;50.278;18.192;2023-02-08T07:23:23;58.90;;;30.00;;
76795;SDS011;65745;50.278;18.192;2023-02-08T07:25:59;73.70;;;37.40;;
76795;SDS011;65745;50.278;18.192;2023-02-08T07:31:06;84.10;;;41.50;;
76795;SDS011;65745;50.278;18.192;2023-02-08T07:33:40;98.60;;;46.90;;
76795;SDS011;65745;50.278;18.192;2023-02-08T07:36:13;103.00;;;47.90;;
76795;SDS011;65745;50.278;18.192;2023-02-08T07:38:45;105.50;;;48.90;;
76795;SDS011;65745;50.278;18.192;2023-02-08T07:41:17;103.00;;;46.60;;
76795;SDS011;65745;50.278;18.192;2023-02-08T07:43:50;91.50;;;41.30;;
76795;SDS011;65745;50.278;18.192;2023-02-08T07:46:24;96.70;;;44.20;;
76795;SDS011;65745;50.278;18.192;2023-02-08T07:48:56;100.60;;;49.40;;
76795;SDS011;65745;50.278;18.192;2023-02-08T07:51:29;94.30;;;49.20;;
76795;SDS011;65745;50.278;18.192;2023-02-08T07:54:01;97.20;;;46.90;;
76795;SDS011;65745;50.278;18.192;2023-02-08T07:56:34;111.00;;;55.00;;
76795;SDS011;65745;50.278;18.192;2023-02-08T07:59:07;81.70;;;44.50;;
76795;SDS011;65745;50.278;18.192;2023-02-08T08:01:39;69.90;;;39.90;;
76795;SDS011;65745;50.278;18.192;2023-02-08T08:04:12;68.00;;;41.50;;
76795;SDS011;65745;50.278;18.192;2023-02-08T08:06:44;64.90;;;42.30;;
76795;SDS011;65745;50.278;18.192;2023-02-08T08:09:18;54.80;;;35.90;;
76795;SDS011;65745;50.278;18.192;2023-02-08T08:11:52;53.90;;;33.70;;
76795;SDS011;65745;50.278;18.192;2023-02-08T08:14:25;54.50;;;34.70;;
76795;SDS011;65745;50.278;18.192;2023-02-08T08:16:57;54.90;;;30.90;;
76795;SDS011;65745;50.278;18.192;2023-02-08T08:19:30;59.80;;;29.80;;
76795;SDS011;65745;50.278;18.192;2023-02-08T08:22:02;57.50;;;31.10;;
76795;SDS011;65745;50.278;18.192;2023-02-08T08:24:35;56.40;;;33.40;;
76795;SDS011;65745;50.278;18.192;2023-02-08T08:27:09;45.80;;;28.20;;
76795;SDS011;65745;50.278;18.192;2023-02-08T08:29:43;44.00;;;26.70;;
76795;SDS011;65745;50.278;18.192;2023-02-08T08:32:29;49.40;;;28.10;;
76795;SDS011;65745;50.278;18.192;2023-02-08T08:35:02;46.00;;;29.10;;
76795;SDS011;65745;50.278;18.192;2023-02-08T08:37:35;45.80;;;27.80;;
76795;SDS011;65745;50.278;18.192;2023-02-08T08:40:10;41.20;;;26.20;;
76795;SDS011;65745;50.278;18.192;2023-02-08T08:42:43;48.60;;;30.40;;
76795;SDS011;65745;50.278;18.192;2023-02-08T08:45:16;45.20;;;28.00;;
76795;SDS011;65745;50.278;18.192;2023-02-08T08:47:49;43.40;;;27.50;;
76795;SDS011;65745;50.278;18.192;2023-02-08T08:50:21;56.70;;;31.00;;
76795;SDS011;65745;50.278;18.192;2023-02-08T08:52:54;45.10;;;27.20;;
76795;SDS011;65745;50.278;18.192;2023-02-08T08:55:27;57.50;;;32.20;;
76795;SDS011;65745;50.278;18.192;2023-02-08T08:58:00;57.00;;;29.80;;
76795;SDS011;65745;50.278;18.192;2023-02-08T09:00:32;46.40;;;28.60;;
76795;SDS011;65745;50.278;18.192;2023-02-08T09:03:05;49.70;;;28.00;;
76795;SDS011;65745;50.278;18.192;2023-02-08T09:05:37;38.30;;;23.60;;
76795;SDS011;65745;50.278;18.192;2023-02-08T09:08:13;43.60;;;24.10;;
76795;SDS011;65745;50.278;18.192;2023-02-08T09:10:45;54.40;;;28.90;;
76795;SDS011;65745;50.278;18.192;2023-02-08T09:13:18;41.10;;;25.50;;
76795;SDS011;65745;50.278;18.192;2023-02-08T09:15:51;52.00;;;28.40;;
76795;SDS011;65745;50.278;18.192;2023-02-08T09:18:24;42.20;;;23.00;;
76795;SDS011;65745;50.278;18.192;2023-02-08T09:20:56;41.80;;;24.80;;
76795;SDS011;65745;50.278;18.192;2023-02-08T09:23:28;43.30;;;25.70;;
76795;SDS011;65745;50.278;18.192;2023-02-08T09:26:02;40.20;;;22.80;;
76795;SDS011;65745;50.278;18.192;2023-02-08T09:28:37;38.60;;;24.10;;
76795;SDS011;65745;50.278;18.192;2023-02-08T09:31:11;38.60;;;22.90;;
76795;SDS011;65745;50.278;18.192;2023-02-08T09:33:48;41.70;;;25.10;;
76795;SDS011;65745;50.278;18.192;2023-02-08T09:36:23;58.10;;;29.30;;
76795;SDS011;65745;50.278;18.192;2023-02-08T09:38:58;48.40;;;29.10;;
76795;SDS011;65745;50.278;18.192;2023-02-08T09:41:45;32.30;;;18.30;;
76795;SDS011;65745;50.278;18.192;2023-02-08T09:44:27;32.40;;;20.80;;
76795;SDS011;65745;50.278;18.192;2023-02-08T09:47:09;37.00;;;21.90;;
76795;SDS011;65745;50.278;18.192;2023-02-08T09:49:50;39.30;;;23.50;;
76795;SDS011;65745;50.278;18.192;2023-02-08T09:52:39;55.60;;;34.40;;
76795;SDS011;65745;50.278;18.192;2023-02-08T09:55:18;41.90;;;26.40;;
76795;SDS011;65745;50.278;18.192;2023-02-08T09:58:01;42.80;;;23.70;;
76795;SDS011;65745;50.278;18.192;2023-02-08T10:00:44;41.60;;;23.00;;
76795;SDS011;65745;50.278;18.192;2023-02-08T10:03:22;30.20;;;20.10;;
76795;SDS011;65745;50.278;18.192;2023-02-08T10:06:00;41.10;;;26.70;;
76795;SDS011;65745;50.278;18.192;2023-02-08T10:08:34;38.50;;;23.90;;
76795;SDS011;65745;50.278;18.192;2023-02-08T10:11:11;28.10;;;18.50;;
76795;SDS011;65745;50.278;18.192;2023-02-08T10:14:22;33.80;;;17.50;;
76795;SDS011;65745;50.278;18.192;2023-02-08T10:17:22;28.70;;;18.40;;
76795;SDS011;65745;50.278;18.192;2023-02-08T10:20:15;33.30;;;18.80;;
76795;SDS011;65745;50.278;18.192;2023-02-08T10:23:04;33.10;;;19.60;;
76795;SDS011;65745;50.278;18.192;2023-02-08T10:26:02;30.70;;;18.30;;
76795;SDS011;65745;50.278;18.192;2023-02-08T10:32:03;27.30;;;17.50;;
76795;SDS011;65745;50.278;18.192;2023-02-08T10:34:45;32.20;;;18.00;;
76795;SDS011;65745;50.278;18.192;2023-02-08T10:39:57;30.00;;;19.60;;
76795;SDS011;65745;50.278;18.192;2023-02-08T10:42:44;31.00;;;18.00;;
76795;SDS011;65745;50.278;18.192;2023-02-08T10:45:23;27.90;;;18.30;;
76795;SDS011;65745;50.278;18.192;2023-02-08T10:48:02;32.80;;;18.20;;
76795;SDS011;65745;50.278;18.192;2023-02-08T10:50:41;23.90;;;15.20;;
76795;SDS011;65745;50.278;18.192;2023-02-08T10:53:16;24.80;;;15.60;;
76795;SDS011;65745;50.278;18.192;2023-02-08T10:55:50;34.00;;;17.90;;
76795;SDS011;65745;50.278;18.192;2023-02-08T10:58:24;26.40;;;15.50;;
76795;SDS011;65745;50.278;18.192;2023-02-08T11:00:56;26.60;;;16.30;;
76795;SDS011;65745;50.278;18.192;2023-02-08T11:03:31;26.50;;;16.20;;
76795;SDS011;65745;50.278;18.192;2023-02-08T11:06:11;33.30;;;19.90;;
76795;SDS011;65745;50.278;18.192;2023-02-08T11:08:57;31.00;;;18.50;;
76795;SDS011;65745;50.278;18.192;2023-02-08T11:11:33;32.40;;;17.70;;
76795;SDS011;65745;50.278;18.192;2023-02-08T11:14:09;35.90;;;21.40;;
76795;SDS011;65745;50.278;18.192;2023-02-08T11:16:51;36.80;;;21.20;;
76795;SDS011;65745;50.278;18.192;2023-02-08T11:19:29;38.90;;;21.20;;
76795;SDS011;65745;50.278;18.192;2023-02-08T11:22:11;39.20;;;20.10;;
76795;SDS011;65745;50.278;18.192;2023-02-08T11:24:54;30.90;;;16.00;;
76795;SDS011;65745;50.278;18.192;2023-02-08T11:27:32;29.40;;;18.80;;
76795;SDS011;65745;50.278;18.192;2023-02-08T11:30:21;35.10;;;19.50;;
76795;SDS011;65745;50.278;18.192;2023-02-08T11:33:18;35.30;;;20.90;;
76795;SDS011;65745;50.278;18.192;2023-02-08T11:35:54;34.20;;;17.80;;
76795;SDS011;65745;50.278;18.192;2023-02-08T11:38:32;29.20;;;17.10;;
76795;SDS011;65745;50.278;18.192;2023-02-08T11:41:14;25.50;;;16.30;;
76795;SDS011;65745;50.278;18.192;2023-02-08T11:43:53;28.10;;;17.60;;
76795;SDS011;65745;50.278;18.192;2023-02-08T11:46:33;27.00;;;15.00;;
76795;SDS011;65745;50.278;18.192;2023-02-08T11:49:16;24.30;;;14.90;;
76795;SDS011;65745;50.278;18.192;2023-02-08T11:51:54;24.20;;;13.30;;
76795;SDS011;65745;50.278;18.192;2023-02-08T11:57:19;26.00;;;15.10;;
76795;SDS011;65745;50.278;18.192;2023-02-08T12:00:15;24.10;;;14.40;;
76795;SDS011;65745;50.278;18.192;2023-02-08T12:02:51;24.10;;;14.50;;
76795;SDS011;65745;50.278;18.192;2023-02-08T12:05:31;24.10;;;15.80;;
76795;SDS011;65745;50.278;18.192;2023-02-08T12:08:14;29.40;;;17.10;;
76795;SDS011;65745;50.278;18.192;2023-02-08T12:11:08;25.40;;;14.60;;
76795;SDS011;65745;50.278;18.192;2023-02-08T12:13:51;24.40;;;15.00;;
76795;SDS011;65745;50.278;18.192;2023-02-08T12:16:40;24.50;;;15.40;;
76795;SDS011;65745;50.278;18.192;2023-02-08T12:19:30;22.90;;;13.80;;
76795;SDS011;65745;50.278;18.192;2023-02-08T12:22:17;27.10;;;15.10;;
76795;SDS011;65745;50.278;18.192;2023-02-08T12:24:57;18.00;;;10.40;;
76795;SDS011;65745;50.278;18.192;2023-02-08T12:27:46;36.10;;;19.10;;
76795;SDS011;65745;50.278;18.192;2023-02-08T12:30:27;29.10;;;15.70;;
76795;SDS011;65745;50.278;18.192;2023-02-08T12:33:08;26.60;;;15.30;;
76795;SDS011;65745;50.278;18.192;2023-02-08T12:35:57;21.50;;;12.10;;
76795;SDS011;65745;50.278;18.192;2023-02-08T12:38:54;24.00;;;15.60;;
76795;SDS011;65745;50.278;18.192;2023-02-08T12:42:03;26.00;;;15.50;;
76795;SDS011;65745;50.278;18.192;2023-02-08T12:44:48;24.30;;;13.20;;
76795;SDS011;65745;50.278;18.192;2023-02-08T12:47:36;25.10;;;16.00;;
76795;SDS011;65745;50.278;18.192;2023-02-08T12:50:34;21.90;;;13.90;;
76795;SDS011;65745;50.278;18.192;2023-02-08T12:53:20;24.40;;;16.50;;
76795;SDS011;65745;50.278;18.192;2023-02-08T12:56:00;29.00;;;15.20;;
76795;SDS011;65745;50.278;18.192;2023-02-08T12:58:37;28.80;;;17.10;;
76795;SDS011;65745;50.278;18.192;2023-02-08T13:01:14;23.50;;;13.90;;
76795;SDS011;65745;50.278;18.192;2023-02-08T13:03:51;26.60;;;15.00;;
76795;SDS011;65745;50.278;18.192;2023-02-08T13:06:31;29.70;;;16.70;;
76795;SDS011;65745;50.278;18.192;2023-02-08T13:09:14;26.90;;;16.20;;
76795;SDS011;65745;50.278;18.192;2023-02-08T13:12:01;28.70;;;16.50;;
76795;SDS011;65745;50.278;18.192;2023-02-08T13:14:38;34.30;;;19.40;;
76795;SDS011;65745;50.278;18.192;2023-02-08T13:17:18;50.00;;;25.80;;
76795;SDS011;65745;50.278;18.192;2023-02-08T13:19:56;30.70;;;17.90;;
76795;SDS011;65745;50.278;18.192;2023-02-08T13:22:33;35.50;;;19.80;;
76795;SDS011;65745;50.278;18.192;2023-02-08T13:25:13;28.90;;;17.80;;
76795;SDS011;65745;50.278;18.192;2023-02-08T13:27:53;28.60;;;17.20;;
76795;SDS011;65745;50.278;18.192;2023-02-08T13:30:29;31.00;;;18.70;;
76795;SDS011;65745;50.278;18.192;2023-02-08T13:33:05;37.80;;;20.50;;
76795;SDS011;65745;50.278;18.192;2023-02-08T13:35:45;28.20;;;17.00;;
76795;SDS011;65745;50.278;18.192;2023-02-08T13:38:26;26.80;;;16.80;;
76795;SDS011;65745;50.278;18.192;2023-02-08T13:41:05;32.40;;;19.70;;
76795;SDS011;65745;50.278;18.192;2023-02-08T13:43:47;30.80;;;19.70;;
76795;SDS011;65745;50.278;18.192;2023-02-08T13:46:24;26.20;;;15.60;;
76795;SDS011;65745;50.278;18.192;2023-02-08T13:49:04;29.50;;;18.80;;
76795;SDS011;65745;50.278;18.192;2023-02-08T13:52:01;31.70;;;19.10;;
76795;SDS011;65745;50.278;18.192;2023-02-08T13:54:34;34.00;;;21.70;;
76795;SDS011;65745;50.278;18.192;2023-02-08T14:00:18;32.40;;;20.20;;
76795;SDS011;65745;50.278;18.192;2023-02-08T14:03:00;35.30;;;25.50;;
76795;SDS011;65745;50.278;18.192;2023-02-08T14:05:50;30.20;;;22.80;;
76795;SDS011;65745;50.278;18.192;2023-02-08T14:08:28;36.50;;;28.00;;
76795;SDS011;65745;50.278;18.192;2023-02-08T14:11:06;29.20;;;21.90;;
76795;SDS011;65745;50.278;18.192;2023-02-08T14:13:48;28.50;;;22.60;;
76795;SDS011;65745;50.278;18.192;2023-02-08T14:16:31;32.10;;;25.60;;
76795;SDS011;65745;50.278;18.192;2023-02-08T14:19:19;29.20;;;23.50;;
76795;SDS011;65745;50.278;18.192;2023-02-08T14:22:00;28.80;;;22.80;;
76795;SDS011;65745;50.278;18.192;2023-02-08T14:24:37;26.20;;;22.80;;
76795;SDS011;65745;50.278;18.192;2023-02-08T14:27:16;27.30;;;23.00;;
76795;SDS011;65745;50.278;18.192;2023-02-08T14:29:58;29.20;;;23.90;;
76795;SDS011;65745;50.278;18.192;2023-02-08T14:32:34;30.40;;;25.10;;
76795;SDS011;65745;50.278;18.192;2023-02-08T14:35:17;32.10;;;26.00;;
76795;SDS011;65745;50.278;18.192;2023-02-08T14:50:41;33.20;;;21.40;;
76795;SDS011;65745;50.278;18.192;2023-02-08T14:53:41;32.10;;;21.40;;
76795;SDS011;65745;50.278;18.192;2023-02-08T14:56:19;32.50;;;21.50;;
76795;SDS011;65745;50.278;18.192;2023-02-08T14:58:56;30.20;;;20.50;;
76795;SDS011;65745;50.278;18.192;2023-02-08T15:01:44;31.40;;;20.40;;
76795;SDS011;65745;50.278;18.192;2023-02-08T15:04:22;30.10;;;20.70;;
76795;SDS011;65745;50.278;18.192;2023-02-08T15:07:11;29.40;;;19.70;;
76795;SDS011;65745;50.278;18.192;2023-02-08T15:09:54;32.80;;;20.50;;
76795;SDS011;65745;50.278;18.192;2023-02-08T15:12:29;31.10;;;20.70;;
76795;SDS011;65745;50.278;18.192;2023-02-08T15:15:18;37.40;;;24.90;;
76795;SDS011;65745;50.278;18.192;2023-02-08T15:17:56;31.30;;;21.00;;
76795;SDS011;65745;50.278;18.192;2023-02-08T15:20:31;38.40;;;23.10;;
76795;SDS011;65745;50.278;18.192;2023-02-08T15:23:06;40.30;;;23.10;;
76795;SDS011;65745;50.278;18.192;2023-02-08T15:25:54;38.10;;;23.20;;
76795;SDS011;65745;50.278;18.192;2023-02-08T15:28:30;39.00;;;24.40;;
76795;SDS011;65745;50.278;18.192;2023-02-08T15:31:05;53.60;;;29.90;;
76795;SDS011;65745;50.278;18.192;2023-02-08T15:33:44;75.60;;;39.80;;
76795;SDS011;65745;50.278;18.192;2023-02-08T15:36:20;70.00;;;40.30;;